Altus Air Force Base
KLTS : now visible

Airfield :











YOU CAN JOIN US ON...

 
LOGIN :

Register | Disclaimer

   EN    FR    IT 

 









Legend :    VFR   Marginal VFR   IFR   Intensive IFR   Very Intensive IFR
Visi :
Ceiling :
>= 8 km
>= 3000ft
5 to 8 km
1000 to 3000 ft
1500m to 5 km
500 to 1000 ft
800 to 1500m
200 to 500 ft
< 800m
< 200 ft
Symbols :   Thunderstorms  Fog  Heavy snow  Heavy precipitations  Wind > 20 kt






- Airport Elevation : 1382 ft


KLTS - Altus Air Force Base

CURRENT METAR :
  • 291256Z 36010KT 10SM BKN010 02/00 A3012 RMK AO2A SLP207 T00171004 $

EXPIRED METARs :
  • 291156Z 01013G17KT 10SM OVC010 02/00 A3010 RMK AO2A SLP201 70032 T00151003 10034 21002 53013 $

TAF AMD TAF KLTS
Valid from the 29 at 13:00 until the 30 at 15:00 UTC


291302Z 2913/3015 35009KT 9999 BKN010 QNH3006INS
BECMG 2914/2915 01010G15KT 9999 SCT010 QNH3009INS
BECMG 2922/2923 04012KT 9999 SCT005 QNH3008INS
BECMG 3006/3007 VRB06KT 9999 BKN006 QNH3016INS TX06/2921Z TN01/3009Z



MET'MAP, your aeronautical weather chart ! - Copyright ORBIFLY December 2007 - Disclaimer

ORBIFLY MET'MAP TEAM :

Programming & Development : Alexandra Zaïnal
Concept & original design : Baudouin d'Aumeries
Assistance for programming : Marc-Olivier Méhu
Technical & hardware support : Manuel Goepfert

Contact : metmap@orbifly.com




SOURCES & CREDITS :

   NOAA       Earth
Advisory